Time;durP1;ratioP1;P1;durP2;ratioP2;P2;SDS_P1;SDS_P2;PMS_P1;PMS_P2;Temp;Humidity;BMP_temperature;BMP_pressure;BME280_temperature;BME280_humidity;BME280_pressure;Samples;Min_cycle;Max_cycle;Signal;HPM_P1;HPM_P2
2024/04/01 00:00:03;;;;;;;27.98;5.35;;;;;;;15.17;94.26;97886.59;5043395;28;20132;-92
2024/04/01 00:02:29;;;;;;;39.47;5.75;;;;;;;15.50;94.81;97929.22;5042089;28;20103;-93
2024/04/01 00:04:56;;;;;;;37.38;5.05;;;;;;;15.55;95.49;97942.38;5044747;28;20064;-94
2024/04/01 00:07:22;;;;;;;43.60;5.18;;;;;;;15.40;95.83;97936.97;5044517;28;20098;-93
2024/04/01 00:09:48;;;;;;;36.47;5.18;;;;;;;15.25;98.33;97935.22;5045116;28;20053;-93
2024/04/01 00:12:14;;;;;;;39.25;5.30;;;;;;;15.15;99.37;97920.63;5042920;28;20124;-95
2024/04/01 00:14:40;;;;;;;25.25;5.53;;;;;;;15.12;99.76;97908.28;5043601;28;20140;-93
2024/04/01 00:17:06;;;;;;;27.65;5.05;;;;;;;14.83;100.00;97869.84;5042996;28;20128;-92
2024/04/01 00:19:32;;;;;;;34.63;4.75;;;;;;;14.22;100.00;97814.50;5044613;28;20094;-93
2024/04/01 00:22:00;;;;;;;43.70;6.10;;;;;;;14.70;100.00;97888.47;5045068;28;20048;-94
2024/04/01 00:24:26;;;;;;;43.67;5.78;;;;;;;14.22;100.00;97788.63;5044192;28;20049;-93
2024/04/01 00:26:52;;;;;;;40.92;5.53;;;;;;;14.48;100.00;97855.81;5042675;28;20039;-92
2024/04/01 00:29:18;;;;;;;39.47;5.15;;;;;;;14.41;100.00;97825.03;5045265;28;20045;-94
2024/04/01 00:31:44;;;;;;;38.97;6.13;;;;;;;14.63;100.00;97846.06;5040682;28;20045;-95
2024/04/01 00:34:10;;;;;;;34.80;5.65;;;;;;;14.78;100.00;97846.03;5042902;28;20488;-93
2024/04/01 00:36:36;;;;;;;31.60;4.88;;;;;;;14.83;100.00;97869.00;5044588;28;20044;-93
2024/04/01 00:39:03;;;;;;;44.33;5.15;;;;;;;15.00;100.00;97860.81;5044459;28;20040;-94
2024/04/01 00:41:29;;;;;;;42.45;6.22;;;;;;;15.00;100.00;97817.97;5044145;28;20054;-95
2024/04/01 00:43:56;;;;;;;28.73;4.78;;;;;;;15.36;100.00;97857.75;5044481;28;20045;-94
2024/04/01 00:46:22;;;;;;;40.97;5.63;;;;;;;15.38;100.00;97845.13;5042158;28;20136;-93
2024/04/01 00:48:50;;;;;;;34.97;6.25;;;;;;;15.50;100.00;97845.31;5044779;28;20049;-94
2024/04/01 00:51:17;;;;;;;38.10;5.35;;;;;;;15.25;100.00;97809.34;5042946;28;20492;-93
2024/04/01 00:53:45;;;;;;;39.47;7.45;;;;;;;15.63;98.66;97843.59;5045816;28;20108;-93
2024/04/01 00:56:17;;;;;;;59.22;6.43;;;;;;;15.60;97.99;97838.44;5047372;28;20044;-92
2024/04/01 00:58:43;;;;;;;36.50;6.10;;;;;;;15.44;95.45;97795.66;5040093;28;20049;-92
2024/04/01 01:01:09;;;;;;;45.72;7.40;;;;;;;15.43;94.06;97777.00;5044348;28;20519;-94
2024/04/01 01:03:35;;;;;;;43.30;6.80;;;;;;;15.15;92.78;97703.72;5046006;28;20072;-91
2024/04/01 01:06:02;;;;;;;46.20;7.32;;;;;;;15.81;92.30;97815.69;5049128;28;20089;-93
2024/04/01 01:08:29;;;;;;;45.30;5.95;;;;;;;15.86;91.42;97809.16;5045471;28;20069;-93
2024/04/01 01:10:55;;;;;;;41.17;7.53;;;;;;;15.32;90.65;97722.28;5043875;28;20131;-93
2024/04/01 01:13:23;;;;;;;44.00;6.50;;;;;;;15.71;91.35;97802.91;5048524;28;20044;-93
2024/04/01 01:15:49;;;;;;;52.72;6.55;;;;;;;15.12;91.63;97695.91;5045373;28;20044;-95
2024/04/01 01:18:15;;;;;;;57.75;7.03;;;;;;;15.85;91.70;97829.72;5047466;28;20126;-95
2024/04/01 01:20:41;;;;;;;48.88;7.53;;;;;;;15.82;91.84;97833.47;5043942;28;20037;-93
2024/04/01 01:23:09;;;;;;;38.95;5.80;;;;;;;15.09;91.21;97691.56;5046675;28;20068;-95
2024/04/01 01:25:37;;;;;;;45.90;7.10;;;;;;;15.71;91.63;97813.63;5047367;28;20518;-93
2024/04/01 01:28:05;;;;;;;41.30;5.65;;;;;;;15.68;91.30;97817.38;5046912;28;20514;-94
2024/04/01 01:30:32;;;;;;;43.58;5.43;;;;;;;15.65;91.38;97814.03;5043891;28;20573;-94
2024/04/01 01:32:59;;;;;;;55.58;7.70;;;;;;;15.77;91.02;97835.59;5050351;28;20057;-93
2024/04/01 01:35:27;;;;;;;47.22;9.23;;;;;;;15.82;89.91;97838.81;5050957;28;20048;-93
2024/04/01 01:37:54;;;;;;;42.72;5.47;;;;;;;15.33;89.76;97750.81;5046778;28;20053;-93
2024/04/01 01:40:21;;;;;;;39.63;6.13;;;;;;;15.50;91.29;97808.66;5044814;28;20036;-94
2024/04/01 01:42:48;;;;;;;42.53;6.20;;;;;;;15.75;90.20;97837.50;5043982;28;20102;-93
2024/04/01 01:45:14;;;;;;;47.17;7.50;;;;;;;15.20;90.69;97753.38;5047816;28;20527;-94
2024/04/01 01:47:40;;;;;;;47.63;6.40;;;;;;;15.07;90.65;97740.81;5049585;28;20062;-93
2024/04/01 01:50:07;;;;;;;34.53;5.22;;;;;;;15.26;91.58;97786.94;5050173;28;20072;-92
2024/04/01 01:52:34;;;;;;;44.47;7.03;;;;;;;15.41;92.56;97826.16;5042820;28;20040;-93
2024/04/01 01:55:00;;;;;;;51.72;7.53;;;;;;;15.36;93.13;97822.06;5046556;28;20052;-92
2024/04/01 01:57:28;;;;;;;37.42;5.82;;;;;;;14.53;94.60;97712.81;5050602;28;20064;-92
2024/04/01 01:59:55;;;;;;;65.70;7.60;;;;;;;14.88;94.83;97774.09;5049927;28;20048;-94
2024/04/01 02:02:20;;;;;;;52.15;7.55;;;;;;;15.04;95.52;97816.00;5036633;28;20540;-93
2024/04/01 02:04:46;;;;;;;37.78;6.32;;;;;;;14.78;96.15;97792.50;5039593;28;20044;-93
2024/04/01 02:07:12;;;;;;;37.20;6.55;;;;;;;14.87;95.86;97809.81;5045888;28;20040;-93
2024/04/01 02:09:39;;;;;;;40.80;8.60;;;;;;;14.88;95.79;97822.28;5046189;28;20037;-93
2024/04/01 02:12:07;;;;;;;31.90;5.10;;;;;;;14.84;96.23;97820.72;5047356;28;20176;-93
2024/04/01 02:14:35;;;;;;;45.45;7.25;;;;;;;14.49;96.11;97791.53;5046027;28;20097;-93
2024/04/01 02:17:02;;;;;;;63.05;8.25;;;;;;;14.79;91.15;97804.94;5045255;28;20044;-94
2024/04/01 02:19:30;;;;;;;55.10;7.35;;;;;;;15.37;78.79;97748.78;5044172;28;20044;-93
2024/04/01 02:21:56;;;;;;;46.42;8.27;;;;;;;15.87;79.54;97805.50;5047094;28;20086;-93
2024/04/01 02:24:22;;;;;;;41.55;7.78;;;;;;;15.91;79.38;97810.56;5044781;28;20044;-93
2024/04/01 02:26:48;;;;;;;44.38;8.23;;;;;;;15.95;79.73;97812.09;5048228;28;20040;-93
2024/04/01 02:29:14;;;;;;;41.50;6.85;;;;;;;15.47;80.02;97738.34;5046858;28;20071;-92
2024/04/01 02:31:42;;;;;;;26.63;5.97;;;;;;;15.72;79.38;97781.44;5040279;28;20171;-93
2024/04/01 02:34:08;;;;;;;40.78;7.28;;;;;;;15.74;78.60;97786.66;5051157;28;20041;-93
2024/04/01 02:36:35;;;;;;;47.42;7.22;;;;;;;15.63;79.65;97773.06;5046878;28;20041;-92
2024/04/01 02:39:02;;;;;;;53.33;7.40;;;;;;;15.18;80.42;97699.06;5045846;28;20107;-93
2024/04/01 02:41:28;;;;;;;49.65;8.57;;;;;;;15.28;81.77;97725.25;5046046;28;20040;-93
2024/04/01 02:43:54;;;;;;;70.00;8.93;;;;;;;15.40;83.69;97791.47;5046486;28;20127;-94
2024/04/01 02:46:20;;;;;;;42.63;5.55;;;;;;;15.54;83.18;97799.47;5048842;28;20163;-93
2024/04/01 02:48:48;;;;;;;48.17;7.72;;;;;;;15.65;82.95;97809.50;5043760;28;20063;-92
2024/04/01 02:51:14;;;;;;;39.20;6.72;;;;;;;15.14;86.44;97795.75;5047196;28;20068;-93
2024/04/01 02:53:47;;;;;;;51.20;7.30;;;;;;;15.25;85.74;97790.59;5049191;28;20083;-93
2024/04/01 02:56:13;;;;;;;48.35;7.35;;;;;;;14.33;86.79;97635.56;5045407;28;20041;-93
2024/04/01 02:58:41;;;;;;;44.75;7.25;;;;;;;14.90;87.25;97742.75;5045286;28;20040;-93
2024/04/01 03:01:07;;;;;;;56.75;7.72;;;;;;;15.27;87.02;97802.06;5047164;28;20110;-94
2024/04/01 03:03:33;;;;;;;46.70;7.22;;;;;;;15.04;88.84;97775.84;5042959;28;20040;-93
2024/04/01 03:06:01;;;;;;;43.03;6.72;;;;;;;15.02;89.95;97800.00;5045458;28;20132;-92
2024/04/01 03:08:27;;;;;;;63.38;7.13;;;;;;;14.84;88.87;97796.63;5047266;28;20113;-93
2024/04/01 03:10:58;;;;;;;45.58;5.95;;;;;;;14.61;87.15;97727.56;5046766;28;20053;-95
2024/04/01 03:13:26;;;;;;;50.47;7.30;;;;;;;15.00;88.30;97802.78;5055472;28;20139;-93
2024/04/01 03:15:53;;;;;;;46.25;7.57;;;;;;;14.77;87.96;97757.81;5055167;28;20049;-93
2024/04/01 03:18:19;;;;;;;48.92;7.30;;;;;;;14.97;88.37;97804.78;5056897;28;20071;-93
2024/04/01 03:20:46;;;;;;;41.50;6.57;;;;;;;14.74;90.87;97814.19;5048473;28;20044;-93
2024/04/01 03:23:14;;;;;;;42.80;6.95;;;;;;;14.66;91.41;97811.09;5044741;28;20048;-94
2024/04/01 03:25:40;;;;;;;52.38;6.47;;;;;;;14.27;90.45;97729.53;5043855;28;20045;-94
2024/04/01 03:28:06;;;;;;;45.05;8.55;;;;;;;14.22;90.14;97715.59;5047829;28;20138;-94
2024/04/01 03:30:33;;;;;;;56.58;8.48;;;;;;;14.33;91.32;97755.91;5045398;28;20033;-94
2024/04/01 03:32:58;;;;;;;44.22;6.20;;;;;;;14.66;90.79;97789.69;5048662;28;20095;-94
2024/04/01 03:35:24;;;;;;;51.47;7.07;;;;;;;14.72;90.48;97783.97;5045991;28;20032;-93
2024/04/01 03:37:50;;;;;;;42.13;5.75;;;;;;;14.63;91.43;97790.75;5048686;28;20494;-94
2024/04/01 03:40:20;;;;;;;45.17;6.60;;;;;;;14.67;90.17;97773.56;5043982;28;20043;-93
2024/04/01 03:42:46;;;;;;;46.30;6.57;;;;;;;14.65;89.97;97759.41;5055354;28;20047;-90
2024/04/01 03:45:12;;;;;;;37.70;6.50;;;;;;;14.77;90.39;97769.38;5066534;28;20112;-92
2024/04/01 03:47:38;;;;;;;51.55;6.53;;;;;;;14.69;91.16;97758.28;5065966;28;20048;-92
2024/04/01 03:50:05;;;;;;;47.67;6.78;;;;;;;14.71;90.68;97758.19;5063522;28;20059;-93
2024/04/01 03:52:31;;;;;;;53.90;7.25;;;;;;;14.60;91.80;97757.97;5052037;28;20052;-93
2024/04/01 03:54:58;;;;;;;50.85;7.50;;;;;;;14.39;91.57;97720.78;5050598;28;20068;-94
2024/04/01 03:57:25;;;;;;;55.17;7.22;;;;;;;14.61;91.29;97746.31;5044088;28;20099;-93
2024/04/01 03:59:51;;;;;;;49.08;5.93;;;;;;;14.31;90.72;97697.19;5057075;28;20098;-94
2024/04/01 04:02:17;;;;;;;60.22;8.55;;;;;;;14.55;90.69;97753.75;5047878;28;20061;-95
2024/04/01 04:04:43;;;;;;;48.95;5.93;;;;;;;14.57;90.01;97746.50;5044962;28;20044;-94
2024/04/01 04:07:09;;;;;;;60.55;7.95;;;;;;;14.16;90.04;97682.03;5047378;28;20042;-92
2024/04/01 04:09:35;;;;;;;59.22;8.55;;;;;;;13.96;90.43;97651.13;5043972;28;20553;-93
2024/04/01 04:12:01;;;;;;;43.00;7.53;;;;;;;14.10;91.07;97685.09;5046872;28;20055;-95
2024/04/01 04:14:32;;;;;;;49.85;7.43;;;;;;;14.50;91.32;97718.34;5042368;28;20550;-93
2024/04/01 04:16:58;;;;;;;40.20;6.72;;;;;;;14.45;91.53;97714.22;5049940;28;20053;-92
2024/04/01 04:19:25;;;;;;;45.30;6.72;;;;;;;14.42;91.35;97719.75;5041347;28;20099;-93
2024/04/01 04:21:51;;;;;;;45.67;7.47;;;;;;;14.45;90.94;97714.22;5049124;28;20045;-94
2024/04/01 04:24:18;;;;;;;48.50;7.22;;;;;;;14.52;90.21;97705.72;5047330;28;20043;-93
2024/04/01 04:26:44;;;;;;;52.03;6.75;;;;;;;14.51;89.95;97697.81;5041495;28;20079;-93
2024/04/01 04:29:10;;;;;;;58.15;7.90;;;;;;;14.24;90.56;97670.91;5044309;28;20049;-94
2024/04/01 04:31:37;;;;;;;51.03;7.70;;;;;;;14.44;89.64;97696.44;5046494;28;20143;-94
2024/04/01 04:34:03;;;;;;;52.97;6.00;;;;;;;14.47;88.62;97693.59;5048478;28;20033;-93
2024/04/01 04:36:29;;;;;;;50.35;5.80;;;;;;;13.97;88.53;97594.94;5048337;28;20037;-92
2024/04/01 04:38:55;;;;;;;30.77;6.85;;;;;;;14.51;88.45;97677.28;5048538;28;20095;-92
2024/04/01 04:41:22;;;;;;;51.08;6.80;;;;;;;14.57;88.00;97676.06;5050367;28;20044;-94
2024/04/01 04:43:48;;;;;;;60.17;7.47;;;;;;;13.82;88.48;97573.59;5043518;28;20033;-92
2024/04/01 04:46:14;;;;;;;49.42;8.20;;;;;;;14.42;89.34;97683.19;5044818;28;20095;-93
2024/04/01 04:48:43;;;;;;;40.20;6.82;;;;;;;14.34;90.13;97678.28;5051024;28;20041;-94
2024/04/01 04:51:09;;;;;;;43.40;9.45;;;;;;;14.24;90.83;97681.59;5047200;28;20072;-93
2024/04/01 04:53:35;;;;;;;54.70;7.63;;;;;;;14.18;90.33;97670.31;5051372;28;20036;-94
2024/04/01 04:56:01;;;;;;;36.50;7.38;;;;;;;14.13;91.44;97664.38;5059113;28;20048;-93
2024/04/01 04:58:27;;;;;;;59.53;7.57;;;;;;;14.03;91.00;97647.19;5041205;28;20053;-93
2024/04/01 05:00:53;;;;;;;55.03;8.02;;;;;;;14.09;91.42;97644.09;5039752;28;20108;-92
2024/04/01 05:03:19;;;;;;;38.38;6.97;;;;;;;13.92;92.40;97630.88;5054455;28;20049;-92
2024/04/01 05:05:46;;;;;;;48.38;8.65;;;;;;;13.91;91.73;97611.31;5047484;28;20044;-93
2024/04/01 05:08:12;;;;;;;53.25;7.30;;;;;;;13.91;94.78;97642.53;5052546;28;20502;-94
2024/04/01 05:10:39;;;;;;;58.17;8.57;;;;;;;13.33;92.57;97499.88;5049365;28;20048;-93
2024/04/01 05:13:05;;;;;;;41.40;7.70;;;;;;;13.85;95.09;97633.06;5047532;28;20043;-93
2024/04/01 05:15:31;;;;;;;63.53;10.25;;;;;;;14.05;94.19;97631.91;5044043;28;20048;-94
2024/04/01 05:17:57;;;;;;;52.00;7.05;;;;;;;13.88;93.37;97575.88;5048097;28;20036;-94
2024/04/01 05:20:23;;;;;;;52.88;8.27;;;;;;;14.20;93.19;97624.75;5047020;28;20376;-92
2024/04/01 05:22:50;;;;;;;52.88;8.90;;;;;;;14.25;92.09;97608.44;5047498;28;20090;-94
2024/04/01 05:25:16;;;;;;;52.40;7.28;;;;;;;14.30;92.06;97603.69;5048503;28;20070;-92
2024/04/01 05:27:42;;;;;;;48.97;8.52;;;;;;;14.43;91.14;97598.44;5049439;28;20041;-93
2024/04/01 05:30:09;;;;;;;52.63;8.45;;;;;;;14.37;91.32;97584.47;5055917;28;20049;-95
2024/04/01 05:32:37;;;;;;;45.22;6.65;;;;;;;14.46;91.73;97582.19;5043944;28;20044;-93
2024/04/01 05:35:05;;;;;;;38.63;7.70;;;;;;;14.45;91.25;97557.28;5045957;28;20045;-93
2024/04/01 05:37:32;;;;;;;42.95;8.13;;;;;;;14.21;91.12;97490.13;5046150;28;20045;-94
2024/04/01 05:40:00;;;;;;;54.10;7.80;;;;;;;14.61;90.38;97551.00;5048169;28;20048;-93
2024/04/01 05:42:26;;;;;;;54.20;7.50;;;;;;;14.74;90.09;97543.91;5045158;28;20040;-93
2024/04/01 05:44:52;;;;;;;59.28;6.65;;;;;;;14.97;89.06;97551.34;5046952;28;20045;-94
2024/04/01 05:47:18;;;;;;;50.60;9.25;;;;;;;14.98;88.73;97542.34;5044648;28;20060;-94
2024/04/01 05:49:44;;;;;;;44.53;9.77;;;;;;;14.88;88.25;97508.25;5048642;28;20672;-93
2024/04/01 05:52:10;;;;;;;58.72;9.73;;;;;;;15.22;83.17;97554.22;5046460;28;20471;-94
2024/04/01 05:54:36;;;;;;;45.28;7.00;;;;;;;15.48;79.71;97545.31;5047125;28;20037;-94
2024/04/01 05:57:04;;;;;;;67.70;8.48;;;;;;;15.27;78.10;97469.97;5046958;28;20049;-94
2024/04/01 05:59:30;;;;;;;55.35;8.40;;;;;;;15.52;76.54;97477.19;5046436;28;20037;-94
2024/04/01 06:01:56;;;;;;;52.28;7.70;;;;;;;16.07;74.79;97546.78;5046814;28;20040;-94
2024/04/01 06:04:23;;;;;;;52.05;7.88;;;;;;;15.46;73.32;97423.16;5050562;28;20055;-94
2024/04/01 06:06:51;;;;;;;53.75;8.90;;;;;;;16.44;72.61;97537.03;5049006;28;20470;-94
2024/04/01 06:09:17;;;;;;;64.78;9.80;;;;;;;16.59;72.97;97546.69;5045949;28;20036;-93
2024/04/01 06:11:44;;;;;;;69.22;9.05;;;;;;;16.18;71.36;97464.63;5046080;28;20040;-94
2024/04/01 06:14:12;;;;;;;65.75;9.32;;;;;;;16.85;72.20;97544.00;5052803;28;20110;-94
2024/04/01 06:16:39;;;;;;;58.22;8.95;;;;;;;16.94;73.64;97545.16;5042982;28;20090;-95
2024/04/01 06:19:06;;;;;;;52.00;9.32;;;;;;;16.91;71.84;97561.47;5043092;28;20140;-94
2024/04/01 06:21:32;;;;;;;64.40;9.23;;;;;;;16.58;68.07;97510.06;5046707;28;20044;-94
2024/04/01 06:23:59;;;;;;;60.95;9.20;;;;;;;17.13;66.82;97566.16;5047320;28;20037;-95
2024/04/01 06:26:25;;;;;;;64.90;10.45;;;;;;;16.96;68.47;97506.47;5047932;28;20139;-93
2024/04/01 06:28:51;;;;;;;75.53;8.27;;;;;;;17.50;63.94;97587.63;5041442;28;20052;-94
2024/04/01 06:31:18;;;;;;;70.35;10.27;;;;;;;17.57;62.66;97568.25;5044958;28;20044;-94
2024/04/01 06:33:44;;;;;;;71.00;10.73;;;;;;;17.80;62.43;97582.66;5046901;28;20037;-94
2024/04/01 06:36:11;;;;;;;62.78;8.55;;;;;;;17.96;63.08;97574.31;5045181;28;20041;-94
2024/04/01 06:38:37;;;;;;;75.20;9.40;;;;;;;18.09;61.91;97568.00;5046561;28;20048;-94
2024/04/01 06:41:04;;;;;;;66.30;11.02;;;;;;;18.09;59.75;97570.69;5044652;28;20041;-94
2024/04/01 06:43:30;;;;;;;61.58;10.25;;;;;;;18.23;59.00;97575.84;5050662;28;20032;-94
2024/04/01 06:45:57;;;;;;;61.08;9.98;;;;;;;18.17;58.29;97533.25;5048735;28;20051;-94
2024/04/01 06:48:25;;;;;;;56.33;9.85;;;;;;;18.27;58.02;97527.06;5043058;28;20037;-95
2024/04/01 06:50:52;;;;;;;67.53;9.23;;;;;;;18.14;58.59;97488.63;5046062;28;20044;-93
2024/04/01 06:53:19;;;;;;;59.63;9.48;;;;;;;18.18;58.82;97486.56;5047552;28;20118;-93
2024/04/01 06:55:45;;;;;;;65.90;9.75;;;;;;;18.21;57.42;97492.53;5047447;28;20044;-94
2024/04/01 06:58:11;;;;;;;59.17;10.35;;;;;;;18.13;57.79;97465.41;5046176;28;20041;-93
2024/04/01 07:00:38;;;;;;;64.43;10.65;;;;;;;19.00;56.84;97570.69;5043976;28;20055;-93
2024/04/01 07:03:05;;;;;;;71.60;10.48;;;;;;;18.85;57.13;97543.16;5047884;28;20036;-94
2024/04/01 07:05:33;;;;;;;75.32;10.88;;;;;;;19.12;56.16;97576.91;5050005;28;20048;-93
2024/04/01 07:08:00;;;;;;;60.88;11.15;;;;;;;19.18;57.36;97559.41;5042266;28;20051;-94
2024/04/01 07:10:26;;;;;;;66.22;9.63;;;;;;;19.01;56.23;97528.44;5044547;28;20048;-95
2024/04/01 07:12:53;;;;;;;74.63;12.23;;;;;;;19.46;55.44;97595.75;5044544;28;20214;-94
2024/04/01 07:15:19;;;;;;;60.33;11.75;;;;;;;19.55;55.08;97592.28;5044065;28;20078;-92
2024/04/01 07:17:45;;;;;;;56.33;10.02;;;;;;;19.80;54.76;97595.66;5048210;28;20037;-95
2024/04/01 07:20:12;;;;;;;62.22;12.55;;;;;;;19.02;55.17;97496.00;5047808;28;20063;-93
2024/04/01 07:22:39;;;;;;;67.18;11.65;;;;;;;19.52;54.81;97610.53;5055456;28;20058;-95
2024/04/01 07:25:06;;;;;;;67.60;11.63;;;;;;;19.69;57.47;97610.00;5056505;28;20131;-94
2024/04/01 07:27:35;;;;;;;72.07;12.68;;;;;;;19.81;55.97;97627.91;5054935;28;20408;-96
2024/04/01 07:30:02;;;;;;;60.38;9.82;;;;;;;19.72;55.92;97576.59;5044098;28;20040;-94
2024/04/01 07:32:28;;;;;;;55.15;9.95;;;;;;;19.94;56.67;97598.06;5044528;28;20056;-94
2024/04/01 07:34:55;;;;;;;77.60;12.45;;;;;;;20.08;52.83;97634.66;5045352;28;20105;-94
2024/04/01 07:37:21;;;;;;;70.57;12.02;;;;;;;19.81;52.21;97590.13;5046825;28;20086;-95
2024/04/01 07:39:48;;;;;;;75.68;10.73;;;;;;;19.43;52.42;97512.41;5048858;28;20049;-96
2024/04/01 07:42:14;;;;;;;66.32;10.82;;;;;;;20.08;51.89;97640.94;5048347;28;20467;-95
2024/04/01 07:44:40;;;;;;;76.05;11.63;;;;;;;19.74;51.08;97574.63;5050518;28;20127;-94
2024/04/01 07:47:06;;;;;;;57.42;10.95;;;;;;;20.31;51.66;97616.53;5043210;28;20056;-95
2024/04/01 07:49:33;;;;;;;79.30;10.57;;;;;;;20.31;49.71;97611.13;5048268;28;20040;-95
2024/04/01 07:51:59;;;;;;;65.35;12.55;;;;;;;20.87;49.62;97642.38;5049566;28;20039;-94
2024/04/01 07:54:26;;;;;;;77.55;11.25;;;;;;;20.69;49.39;97601.63;5050802;28;20037;-93
2024/04/01 07:56:54;;;;;;;79.65;10.63;;;;;;;21.12;49.95;97660.00;5046384;28;20229;-94
2024/04/01 07:59:20;;;;;;;75.18;12.77;;;;;;;21.03;49.57;97623.81;5050604;28;20476;-95
2024/04/01 08:01:46;;;;;;;76.18;11.23;;;;;;;21.26;50.28;97666.91;5040289;28;20420;-96
2024/04/01 08:04:13;;;;;;;62.38;10.73;;;;;;;21.23;50.65;97676.16;5046607;28;20037;-95
2024/04/01 08:06:39;;;;;;;74.35;10.70;;;;;;;20.92;49.23;97619.34;5047572;28;20036;-96
2024/04/01 08:09:05;;;;;;;79.28;12.57;;;;;;;21.09;49.41;97642.19;5059029;28;20506;-96
2024/04/01 08:11:31;;;;;;;50.50;11.82;;;;;;;20.62;48.63;97571.56;5055039;28;20044;-96
2024/04/01 08:13:59;;;;;;;73.78;10.95;;;;;;;21.29;49.09;97672.88;5061333;28;20044;-96
2024/04/01 08:16:25;;;;;;;53.75;10.18;;;;;;;20.90;49.54;97580.81;5051523;28;20041;-96
2024/04/01 08:18:51;;;;;;;77.07;10.13;;;;;;;21.57;48.83;97696.66;5053867;28;20048;-96
2024/04/01 08:21:17;;;;;;;74.38;12.52;;;;;;;21.10;47.94;97619.59;5051262;28;20075;-96
2024/04/01 08:23:43;;;;;;;61.15;11.93;;;;;;;20.78;47.73;97608.91;5051931;28;20075;-95
2024/04/01 08:26:10;;;;;;;79.50;11.45;;;;;;;21.32;47.21;97642.03;5050495;28;20044;-96
2024/04/01 08:28:36;;;;;;;65.05;11.20;;;;;;;21.19;47.78;97652.19;5050885;28;20037;-95
2024/04/01 08:31:04;;;;;;;65.22;8.93;;;;;;;21.89;48.05;97694.63;5047532;28;20373;-94
2024/04/01 08:33:30;;;;;;;59.45;11.15;;;;;;;21.99;47.36;97693.78;5047963;28;20152;-96
2024/04/01 08:35:57;;;;;;;61.28;11.45;;;;;;;21.40;48.12;97598.06;5048801;28;20575;-96
2024/04/01 08:38:23;;;;;;;60.13;11.05;;;;;;;21.33;49.26;97643.72;5048720;28;20496;-95
2024/04/01 08:40:53;;;;;;;61.55;10.95;;;;;;;21.52;50.53;97700.63;5047360;28;20069;-95
2024/04/01 08:43:31;;;;;;;42.35;7.40;;;;;;;21.72;49.05;97684.47;5053688;28;20094;-96
2024/04/01 08:45:57;;;;;;;59.60;9.25;;;;;;;21.98;49.31;97681.25;5043836;28;20079;-95
2024/04/01 08:48:28;;;;;;;44.40;7.13;;;;;;;21.63;49.18;97591.47;5048340;28;20048;-96
2024/04/01 08:50:57;;;;;;;54.83;9.93;;;;;;;21.71;49.32;97625.94;5049357;28;20136;-96
2024/04/01 08:53:38;;;;;;;46.47;9.57;;;;;;;21.74;49.83;97671.66;5052276;28;20048;-94
2024/04/01 08:56:07;;;;;;;42.28;8.48;;;;;;;20.91;50.33;97597.91;5052159;28;20051;-95
2024/04/01 08:58:34;;;;;;;62.20;8.40;;;;;;;21.36;52.54;97718.31;5051319;28;20073;-95
2024/04/01 09:01:00;;;;;;;47.33;7.45;;;;;;;21.04;52.29;97655.28;5059758;28;20064;-95
2024/04/01 09:03:28;;;;;;;41.20;7.60;;;;;;;20.81;52.02;97621.31;5056271;28;20422;-94
2024/04/01 09:05:56;;;;;;;41.70;7.47;;;;;;;21.32;51.67;97674.47;5051130;28;20045;-94
2024/04/01 09:08:24;;;;;;;54.70;7.85;;;;;;;21.88;51.46;97727.22;5056326;28;20400;-96
2024/04/01 09:10:52;;;;;;;52.75;9.07;;;;;;;21.76;52.15;97712.13;5050480;28;20033;-95
2024/04/01 09:13:19;;;;;;;49.40;9.30;;;;;;;21.84;51.94;97706.84;5052213;28;20075;-96
2024/04/01 09:15:45;;;;;;;39.70;7.55;;;;;;;22.03;51.61;97711.47;5049049;28;20048;-96
2024/04/01 09:18:15;;;;;;;53.25;8.30;;;;;;;22.44;51.40;97714.97;5052868;28;20044;-96
2024/04/01 09:20:50;;;;;;;44.40;6.82;;;;;;;21.72;51.01;97620.38;5055997;28;20495;-96
2024/04/01 09:23:16;;;;;;;49.85;8.48;;;;;;;21.54;51.75;97601.25;5051138;28;20094;-96
2024/04/01 09:25:42;;;;;;;53.83;6.57;;;;;;;21.98;52.40;97692.94;5055036;28;20562;-95
2024/04/01 09:28:08;;;;;;;62.85;8.80;;;;;;;22.11;54.21;97712.47;5052126;28;20040;-96
2024/04/01 09:30:35;;;;;;;51.33;7.95;;;;;;;21.27;53.83;97572.13;5056026;28;20094;-96
2024/04/01 09:33:01;;;;;;;63.20;7.97;;;;;;;22.21;53.20;97665.63;5050520;28;20056;-95
2024/04/01 09:35:27;;;;;;;34.92;6.55;;;;;;;21.94;53.98;97569.69;5047418;28;20071;-96
2024/04/01 09:37:55;;;;;;;67.68;8.77;;;;;;;22.51;53.44;97619.44;5060970;28;20037;-94
2024/04/01 09:40:21;;;;;;;47.42;7.90;;;;;;;22.56;52.42;97663.19;5064587;28;20078;-96
2024/04/01 09:42:49;;;;;;;46.65;8.07;;;;;;;21.86;53.51;97565.00;5072359;28;20096;-94
2024/04/01 09:45:15;;;;;;;45.53;7.93;;;;;;;21.62;54.47;97594.28;5069426;28;20036;-95
2024/04/01 09:47:42;;;;;;;46.53;6.78;;;;;;;21.96;55.79;97673.25;5067062;28;20060;-95
2024/04/01 09:50:08;;;;;;;48.60;8.27;;;;;;;21.94;55.45;97686.94;5067850;28;20131;-94
2024/04/01 09:52:34;;;;;;;49.10;7.28;;;;;;;21.77;57.09;97713.81;5060314;28;20056;-95
2024/04/01 09:55:09;;;;;;;54.55;8.20;;;;;;;20.87;59.20;97656.75;5062133;28;20541;-95
2024/04/01 09:58:01;;;;;;;45.53;8.52;;;;;;;20.88;59.67;97663.00;5041945;28;20037;-96
2024/04/01 10:00:39;;;;;;;50.30;7.55;;;;;;;20.84;61.91;97699.38;5047333;28;20052;-96
2024/04/01 10:03:52;;;;;;;43.63;6.95;;;;;;;20.82;62.67;97715.75;5053270;28;20090;-95
2024/04/01 10:06:35;;;;;;;;;;;;;;;20.51;67.64;97739.94;5047251;28;20123;-95
2024/04/01 10:09:46;;;;;;;50.17;6.68;;;;;;;20.18;71.84;97740.88;5052291;28;19927;-95
2024/04/01 10:12:44;;;;;;;42.90;6.15;;;;;;;20.07;73.23;97705.84;5022139;28;20044;-96
2024/04/01 10:15:49;;;;;;;43.17;6.68;;;;;;;19.92;77.26;97736.78;5046767;28;20049;-95
2024/04/01 10:18:35;;;;;;;35.53;6.90;;;;;;;19.84;76.31;97732.00;5053268;28;20044;-95
2024/04/01 10:21:21;;;;;;;47.35;7.82;;;;;;;19.37;77.75;97653.09;5054872;28;20041;-95
2024/04/01 10:24:28;;;;;;;47.70;7.00;;;;;;;19.62;77.68;97727.47;5064850;28;20119;-96
2024/04/01 10:27:23;;;;;;;42.65;6.55;;;;;;;19.43;78.95;97693.03;5047331;28;20094;-96
2024/04/01 10:30:17;;;;;;;39.90;7.53;;;;;;;19.92;76.37;97739.50;5049596;28;20052;-95
2024/04/01 10:33:26;;;;;;;36.70;6.60;;;;;;;20.04;76.22;97717.75;5045372;28;20052;-95
2024/04/01 10:36:10;;;;;;;47.65;9.85;;;;;;;19.95;75.11;97636.69;5043370;28;20051;-95
2024/04/01 10:39:26;;;;;;;44.05;6.65;;;;;;;20.86;73.25;97700.97;5050230;28;20125;-95
2024/04/01 10:42:44;;;;;;;41.70;7.60;;;;;;;21.31;70.47;97699.78;5042674;28;20069;-94
2024/04/01 10:45:51;;;;;;;39.60;7.38;;;;;;;21.69;68.88;97696.44;5043393;28;21262;-96
2024/04/01 10:48:18;;;;;;;42.08;7.38;;;;;;;22.08;67.35;97671.31;5045883;28;20087;-94
2024/04/01 10:51:18;;;;;;;50.25;7.40;;;;;;;22.23;66.47;97678.03;5046171;28;20045;-94
2024/04/01 10:54:01;;;;;;;38.38;7.05;;;;;;;22.32;66.72;97671.78;5047199;28;20086;-95
2024/04/01 10:57:06;;;;;;;49.72;7.97;;;;;;;22.04;65.38;97678.84;5057882;28;20041;-93
2024/04/01 11:00:17;;;;;;;40.97;7.65;;;;;;;21.61;66.22;97657.53;5050510;28;20037;-94
2024/04/01 11:03:29;;;;;;;44.58;7.55;;;;;;;21.34;67.00;97677.91;5049338;28;20056;-96
2024/04/01 11:06:24;;;;;;;43.55;6.88;;;;;;;20.77;68.60;97695.50;5068127;28;20076;-96
2024/04/01 11:09:05;;;;;;;48.13;8.77;;;;;;;20.37;67.76;97639.47;5048730;28;20036;-93
2024/04/01 11:11:42;;;;;;;45.67;6.57;;;;;;;19.94;67.38;97589.97;5048095;28;20041;-94
2024/04/01 11:14:09;;;;;;;39.55;6.00;;;;;;;20.55;68.04;97693.75;5046997;28;20040;-95
2024/04/01 11:16:41;;;;;;;44.80;7.50;;;;;;;20.33;67.96;97670.41;5052916;28;20033;-95
2024/04/01 11:19:37;;;;;;;44.75;8.15;;;;;;;20.25;68.99;97660.25;5039736;28;20078;-94
2024/04/01 11:22:04;;;;;;;45.85;7.75;;;;;;;19.60;69.49;97579.25;5051025;28;20131;-96
2024/04/01 11:24:43;;;;;;;45.25;6.90;;;;;;;20.21;69.15;97694.75;5056175;28;20489;-95
2024/04/01 11:27:54;;;;;;;29.92;5.97;;;;;;;20.08;69.85;97683.25;5050317;28;20136;-94
2024/04/01 11:30:26;;;;;;;46.97;6.95;;;;;;;20.09;69.95;97685.84;5037935;28;20048;-94
2024/04/01 11:32:57;;;;;;;40.63;7.93;;;;;;;20.07;70.93;97684.25;5045194;28;20044;-95
2024/04/01 11:35:41;;;;;;;53.78;7.15;;;;;;;19.95;72.13;97680.75;5046829;28;20186;-94